Time;durP1;ratioP1;P1;durP2;ratioP2;P2;SDS_P1;SDS_P2;PMS_P1;PMS_P2;Temp;Humidity;BMP_temperature;BMP_pressure;BME280_temperature;BME280_humidity;BME280_pressure;Samples;Min_cycle;Max_cycle;Signal;HPM_P1;HPM_P2
2021/09/20 00:01:47;;;;;;;5.70;4.40;;;;;;;;;;4958019;28;20246;-74
2021/09/20 00:04:12;;;;;;;4.10;3.70;;;;;;;;;;4959548;28;20190;-75
2021/09/20 00:06:38;;;;;;;5.77;3.63;;;;;;;;;;4953337;28;20278;-75
2021/09/20 00:09:04;;;;;;;4.87;4.37;;;;;;;;;;4955661;28;20236;-75
2021/09/20 00:11:29;;;;;;;6.73;4.43;;;;;;;;;;4958192;28;20203;-75
2021/09/20 00:13:54;;;;;;;4.60;4.20;;;;;;;;;;4957761;28;20485;-74
2021/09/20 00:16:20;;;;;;;4.47;4.07;;;;;;;;;;4955041;28;20214;-74
2021/09/20 00:18:45;;;;;;;5.53;3.70;;;;;;;;;;4956299;28;20635;-75
2021/09/20 00:21:10;;;;;;;4.77;4.07;;;;;;;;;;4954649;28;20186;-75
2021/09/20 00:23:36;;;;;;;4.80;4.30;;;;;;;;;;4953139;28;20195;-74
2021/09/20 00:26:01;;;;;;;5.00;4.50;;;;;;;;;;4954241;28;20281;-75
2021/09/20 00:28:27;;;;;;;5.47;3.93;;;;;;;;;;4959913;28;20194;-75
2021/09/20 00:30:52;;;;;;;5.20;4.17;;;;;;;;;;4956881;28;20187;-74
2021/09/20 00:33:17;;;;;;;5.87;3.60;;;;;;;;;;4954696;28;20203;-74
2021/09/20 00:35:43;;;;;;;5.00;4.10;;;;;;;;;;4952779;28;20214;-75
2021/09/20 00:38:08;;;;;;;4.37;3.63;;;;;;;;;;4955915;28;20623;-75
2021/09/20 00:40:33;;;;;;;5.63;3.97;;;;;;;;;;4957409;28;20693;-74
2021/09/20 00:42:59;;;;;;;5.23;4.03;;;;;;;;;;4952727;28;20226;-75
2021/09/20 00:45:24;;;;;;;5.53;4.20;;;;;;;;;;4954100;28;20209;-75
2021/09/20 00:47:49;;;;;;;4.47;3.37;;;;;;;;;;4954158;28;20198;-75
2021/09/20 00:50:14;;;;;;;4.50;3.87;;;;;;;;;;4956394;28;20197;-75
2021/09/20 00:52:40;;;;;;;5.77;4.20;;;;;;;;;;4957957;28;20700;-74
2021/09/20 00:55:06;;;;;;;4.93;3.70;;;;;;;;;;4956405;28;20253;-75
2021/09/20 00:57:31;;;;;;;3.77;3.33;;;;;;;;;;4952685;28;20183;-74
2021/09/20 00:59:56;;;;;;;4.20;3.80;;;;;;;;;;4957826;28;20435;-75
2021/09/20 01:02:22;;;;;;;5.67;3.73;;;;;;;;;;4955230;28;20206;-75
2021/09/20 01:04:47;;;;;;;3.80;3.40;;;;;;;;;;4957791;28;20242;-75
2021/09/20 01:07:12;;;;;;;5.30;3.80;;;;;;;;;;4955929;28;20183;-75
2021/09/20 01:09:40;;;;;;;10.10;4.07;;;;;;;;;;4956161;28;20763;-74
2021/09/20 01:12:07;;;;;;;3.90;3.50;;;;;;;;;;4951867;28;20186;-75
2021/09/20 01:14:32;;;;;;;4.00;3.60;;;;;;;;;;4954187;28;21029;-75
2021/09/20 01:16:57;;;;;;;4.43;3.07;;;;;;;;;;4956481;28;20446;-75
2021/09/20 01:19:23;;;;;;;5.17;3.33;;;;;;;;;;4957245;28;20253;-75
2021/09/20 01:21:48;;;;;;;4.90;3.50;;;;;;;;;;4960122;28;20183;-74
2021/09/20 01:24:13;;;;;;;4.60;3.60;;;;;;;;;;4953596;28;20191;-75
2021/09/20 01:26:39;;;;;;;3.87;3.40;;;;;;;;;;4956440;28;20190;-75
2021/09/20 01:29:06;;;;;;;5.00;3.30;;;;;;;;;;4960963;28;20556;-75
2021/09/20 01:31:31;;;;;;;4.80;3.90;;;;;;;;;;4954702;28;20818;-75
2021/09/20 01:33:56;;;;;;;6.73;3.90;;;;;;;;;;4956060;28;20534;-75
2021/09/20 01:36:21;;;;;;;5.00;3.80;;;;;;;;;;4961044;28;20285;-74
2021/09/20 01:38:47;;;;;;;4.43;3.60;;;;;;;;;;4960477;28;20258;-75
2021/09/20 01:41:12;;;;;;;5.60;3.77;;;;;;;;;;4965695;28;20644;-75
2021/09/20 01:43:37;;;;;;;3.87;3.47;;;;;;;;;;4958995;28;20306;-75
2021/09/20 01:46:02;;;;;;;4.43;3.17;;;;;;;;;;4959021;28;20318;-75
2021/09/20 01:48:28;;;;;;;3.70;3.40;;;;;;;;;;4956474;28;20268;-74
2021/09/20 01:50:53;;;;;;;3.97;3.50;;;;;;;;;;4956109;28;20191;-75
2021/09/20 01:53:18;;;;;;;3.50;3.10;;;;;;;;;;4956936;28;20660;-74
2021/09/20 01:55:43;;;;;;;4.40;3.40;;;;;;;;;;4954626;28;20206;-74
2021/09/20 01:58:09;;;;;;;3.47;3.17;;;;;;;;;;4955452;28;20532;-75
2021/09/20 02:00:34;;;;;;;6.20;3.50;;;;;;;;;;4956918;28;20194;-75
2021/09/20 02:02:59;;;;;;;4.50;3.03;;;;;;;;;;4961386;28;20289;-75
2021/09/20 02:05:24;;;;;;;4.63;3.20;;;;;;;;;;4961636;28;20186;-75
2021/09/20 02:07:50;;;;;;;3.33;3.03;;;;;;;;;;4957585;28;20560;-74
2021/09/20 02:10:16;;;;;;;4.73;3.40;;;;;;;;;;4959106;28;20198;-75
2021/09/20 02:12:41;;;;;;;3.97;3.00;;;;;;;;;;4960140;28;20703;-75
2021/09/20 02:15:07;;;;;;;4.30;3.20;;;;;;;;;;4957502;28;20484;-75
2021/09/20 02:17:32;;;;;;;4.07;3.33;;;;;;;;;;4964259;28;20187;-75
2021/09/20 02:19:58;;;;;;;4.60;3.37;;;;;;;;;;4956723;28;20756;-74
2021/09/20 02:22:23;;;;;;;8.23;3.53;;;;;;;;;;4963660;28;20221;-75
2021/09/20 02:24:48;;;;;;;5.07;3.10;;;;;;;;;;4954240;28;20178;-75
2021/09/20 02:27:13;;;;;;;3.00;2.70;;;;;;;;;;4953589;28;20214;-75
2021/09/20 02:29:39;;;;;;;5.07;3.93;;;;;;;;;;4959595;28;20175;-74
2021/09/20 02:32:04;;;;;;;4.07;3.37;;;;;;;;;;4953123;28;20267;-74
2021/09/20 02:34:29;;;;;;;4.27;2.87;;;;;;;;;;4956043;28;20179;-75
2021/09/20 02:36:55;;;;;;;3.57;2.97;;;;;;;;;;4955431;28;20194;-75
2021/09/20 02:39:20;;;;;;;3.80;2.87;;;;;;;;;;4961787;28;20343;-75
2021/09/20 02:41:45;;;;;;;4.27;3.00;;;;;;;;;;4955730;28;20179;-75
2021/09/20 02:44:12;;;;;;;5.80;3.00;;;;;;;;;;4959881;28;20268;-75
2021/09/20 02:46:37;;;;;;;3.63;3.00;;;;;;;;;;4957476;28;20184;-74
2021/09/20 02:49:03;;;;;;;3.20;2.90;;;;;;;;;;4960602;28;20441;-75
2021/09/20 02:51:28;;;;;;;4.23;3.00;;;;;;;;;;4953931;28;20198;-75
2021/09/20 02:53:53;;;;;;;3.27;2.97;;;;;;;;;;4961484;28;20211;-74
2021/09/20 02:56:18;;;;;;;5.20;3.23;;;;;;;;;;4954428;28;20257;-74
2021/09/20 02:58:43;;;;;;;5.17;2.50;;;;;;;;;;4956739;28;20175;-74
2021/09/20 03:01:09;;;;;;;2.87;2.67;;;;;;;;;;4956446;28;20186;-75
2021/09/20 03:03:34;;;;;;;3.37;3.07;;;;;;;;;;4957108;28;20297;-75
2021/09/20 03:05:59;;;;;;;2.77;2.50;;;;;;;;;;4960651;28;20250;-75
2021/09/20 03:08:25;;;;;;;2.63;2.43;;;;;;;;;;4964055;28;20202;-75
2021/09/20 03:10:50;;;;;;;4.60;2.90;;;;;;;;;;4957022;28;20183;-75
2021/09/20 03:13:15;;;;;;;3.70;2.40;;;;;;;;;;4959157;28;20207;-75
2021/09/20 03:15:40;;;;;;;5.50;2.90;;;;;;;;;;4955313;28;20658;-75
2021/09/20 03:18:06;;;;;;;3.87;2.80;;;;;;;;;;4961179;28;20233;-75
2021/09/20 03:20:31;;;;;;;7.40;3.20;;;;;;;;;;4958676;28;20185;-75
2021/09/20 03:22:57;;;;;;;3.27;2.60;;;;;;;;;;4955401;28;20194;-75
2021/09/20 03:25:22;;;;;;;3.07;2.50;;;;;;;;;;4957932;28;20195;-75
2021/09/20 03:27:48;;;;;;;3.00;2.40;;;;;;;;;;4957691;28;20210;-75
2021/09/20 03:30:15;;;;;;;2.73;2.47;;;;;;;;;;4959357;28;20714;-75
2021/09/20 03:32:40;;;;;;;4.57;3.10;;;;;;;;;;4958711;28;20202;-75
2021/09/20 03:35:06;;;;;;;4.03;2.90;;;;;;;;;;4956735;28;21009;-74
2021/09/20 03:37:32;;;;;;;3.20;2.80;;;;;;;;;;4956643;28;20175;-74
2021/09/20 03:39:57;;;;;;;2.83;2.37;;;;;;;;;;4957451;28;20470;-74
2021/09/20 03:42:22;;;;;;;3.63;3.00;;;;;;;;;;4955323;28;20230;-75
2021/09/20 03:44:48;;;;;;;3.03;2.63;;;;;;;;;;4955579;28;20643;-75
2021/09/20 03:47:13;;;;;;;2.80;2.50;;;;;;;;;;4961021;28;20186;-75
2021/09/20 03:49:38;;;;;;;3.23;2.90;;;;;;;;;;4960229;28;20206;-76
2021/09/20 03:52:04;;;;;;;8.33;2.70;;;;;;;;;;4956025;28;20182;-75
2021/09/20 03:54:29;;;;;;;2.60;2.40;;;;;;;;;;4956441;28;20202;-75
2021/09/20 03:56:54;;;;;;;3.27;2.33;;;;;;;;;;4956689;28;20273;-75
2021/09/20 03:59:19;;;;;;;4.93;2.23;;;;;;;;;;4961016;28;20822;-75
2021/09/20 04:01:45;;;;;;;3.30;2.50;;;;;;;;;;4953576;28;20194;-75
2021/09/20 04:04:10;;;;;;;4.97;3.03;;;;;;;;;;4957890;28;20203;-75
2021/09/20 04:06:35;;;;;;;3.67;2.50;;;;;;;;;;4958510;28;20257;-75
2021/09/20 04:09:02;;;;;;;3.13;2.47;;;;;;;;;;4960855;28;20242;-75
2021/09/20 04:11:27;;;;;;;2.33;2.13;;;;;;;;;;4953395;28;20191;-75
2021/09/20 04:13:52;;;;;;;3.00;2.30;;;;;;;;;;4955929;28;20545;-75
2021/09/20 04:16:18;;;;;;;5.60;3.10;;;;;;;;;;4955716;28;20228;-75
2021/09/20 04:18:43;;;;;;;4.00;2.90;;;;;;;;;;4957804;28;20170;-75
2021/09/20 04:21:08;;;;;;;3.63;2.63;;;;;;;;;;4955141;28;20185;-75
2021/09/20 04:23:34;;;;;;;3.40;2.27;;;;;;;;;;4955577;28;20211;-75
2021/09/20 04:25:59;;;;;;;3.27;2.37;;;;;;;;;;4959254;28;20178;-75
2021/09/20 04:28:24;;;;;;;3.30;2.77;;;;;;;;;;4958145;28;20639;-75
2021/09/20 04:30:50;;;;;;;4.83;2.33;;;;;;;;;;4949378;28;20188;-75
2021/09/20 04:33:16;;;;;;;2.77;2.53;;;;;;;;;;4960088;28;20218;-75
2021/09/20 04:35:41;;;;;;;4.60;2.47;;;;;;;;;;4955544;28;20273;-75
2021/09/20 04:38:07;;;;;;;2.40;2.20;;;;;;;;;;4950344;28;20438;-75
2021/09/20 04:40:33;;;;;;;3.80;2.23;;;;;;;;;;4953277;28;20190;-75
2021/09/20 04:42:58;;;;;;;3.73;2.50;;;;;;;;;;4955778;28;20318;-75
2021/09/20 04:45:23;;;;;;;3.20;2.00;;;;;;;;;;4959745;28;20191;-75
2021/09/20 04:47:48;;;;;;;2.87;2.33;;;;;;;;;;4955709;28;20811;-76
2021/09/20 04:50:14;;;;;;;2.67;2.47;;;;;;;;;;4960515;28;20186;-76
2021/09/20 04:52:39;;;;;;;2.50;2.30;;;;;;;;;;4954487;28;20788;-76
2021/09/20 04:55:04;;;;;;;3.13;2.60;;;;;;;;;;4955208;28;20211;-76
2021/09/20 04:57:30;;;;;;;6.00;2.83;;;;;;;;;;4959759;28;20179;-76
2021/09/20 04:59:55;;;;;;;6.00;3.27;;;;;;;;;;4957183;28;20188;-75
2021/09/20 05:02:20;;;;;;;2.67;2.37;;;;;;;;;;4958269;28;20352;-76
2021/09/20 05:04:45;;;;;;;3.30;2.63;;;;;;;;;;4955791;28;20273;-75
2021/09/20 05:07:11;;;;;;;2.90;2.60;;;;;;;;;;4953726;28;20186;-76
2021/09/20 05:09:36;;;;;;;2.70;2.50;;;;;;;;;;4954016;28;20240;-75
2021/09/20 05:12:01;;;;;;;4.83;2.80;;;;;;;;;;4960933;28;20186;-75
2021/09/20 05:14:26;;;;;;;3.07;2.50;;;;;;;;;;4951842;28;20185;-75
2021/09/20 05:16:52;;;;;;;3.43;2.67;;;;;;;;;;4964572;28;20531;-75
2021/09/20 05:19:18;;;;;;;3.20;2.80;;;;;;;;;;4962998;28;21012;-75
2021/09/20 05:21:43;;;;;;;4.33;3.20;;;;;;;;;;4955269;28;20568;-75
2021/09/20 05:24:08;;;;;;;4.20;2.93;;;;;;;;;;4955694;28;20226;-75
2021/09/20 05:26:33;;;;;;;4.43;2.53;;;;;;;;;;4966049;28;20529;-75
2021/09/20 05:28:59;;;;;;;8.37;2.50;;;;;;;;;;4958832;28;20435;-75
2021/09/20 05:31:24;;;;;;;2.53;2.33;;;;;;;;;;4959334;28;20186;-75
2021/09/20 05:33:49;;;;;;;2.73;2.40;;;;;;;;;;4969458;28;20195;-75
2021/09/20 05:36:14;;;;;;;4.43;2.33;;;;;;;;;;4966363;28;20210;-75
2021/09/20 05:38:40;;;;;;;3.53;2.90;;;;;;;;;;4963366;28;20177;-75
2021/09/20 05:41:05;;;;;;;3.27;2.77;;;;;;;;;;4960789;28;20226;-75
2021/09/20 05:43:30;;;;;;;6.10;3.00;;;;;;;;;;4961236;28;20726;-76
2021/09/20 05:45:56;;;;;;;7.60;2.70;;;;;;;;;;4963055;28;20672;-75
2021/09/20 05:48:21;;;;;;;3.80;2.60;;;;;;;;;;4964812;28;20282;-76
2021/09/20 05:50:47;;;;;;;3.83;2.80;;;;;;;;;;4959197;28;20639;-75
2021/09/20 05:53:13;;;;;;;4.33;2.93;;;;;;;;;;4961376;28;20203;-75
2021/09/20 05:55:38;;;;;;;2.80;2.53;;;;;;;;;;4957249;28;20687;-75
2021/09/20 05:58:04;;;;;;;2.60;2.17;;;;;;;;;;4966490;28;20561;-74
2021/09/20 06:00:29;;;;;;;2.73;2.20;;;;;;;;;;4957575;28;20186;-75
2021/09/20 06:02:55;;;;;;;2.60;2.40;;;;;;;;;;4964623;28;20202;-74
2021/09/20 06:05:20;;;;;;;2.57;2.37;;;;;;;;;;4963484;28;20236;-75
2021/09/20 06:07:46;;;;;;;2.43;2.23;;;;;;;;;;4961049;28;20180;-75
2021/09/20 06:10:11;;;;;;;3.13;2.77;;;;;;;;;;4964288;28;20552;-75
2021/09/20 06:12:37;;;;;;;5.30;2.40;;;;;;;;;;4954670;28;20683;-75
2021/09/20 06:15:03;;;;;;;2.03;1.93;;;;;;;;;;4963235;28;20850;-75
2021/09/20 06:17:28;;;;;;;2.63;1.93;;;;;;;;;;4959983;28;20187;-74
2021/09/20 06:19:54;;;;;;;4.40;2.60;;;;;;;;;;4963557;28;20497;-75
2021/09/20 06:22:19;;;;;;;2.50;2.30;;;;;;;;;;4964641;28;20203;-75
2021/09/20 06:24:44;;;;;;;2.53;2.10;;;;;;;;;;4958507;28;20191;-75
2021/09/20 06:27:09;;;;;;;2.33;1.93;;;;;;;;;;4967283;28;20241;-76
2021/09/20 06:29:35;;;;;;;3.00;2.60;;;;;;;;;;4958826;28;20241;-75
2021/09/20 06:32:00;;;;;;;3.97;2.77;;;;;;;;;;4964196;28;20226;-75
2021/09/20 06:34:26;;;;;;;2.93;2.47;;;;;;;;;;4965878;28;20205;-75
2021/09/20 06:36:51;;;;;;;4.30;2.80;;;;;;;;;;4960441;28;20207;-75
2021/09/20 06:39:17;;;;;;;3.00;2.13;;;;;;;;;;4961181;28;20469;-75
2021/09/20 06:41:42;;;;;;;3.23;2.50;;;;;;;;;;4967589;28;20189;-75
2021/09/20 06:44:07;;;;;;;3.90;2.37;;;;;;;;;;4961280;28;20338;-74
2021/09/20 06:46:35;;;;;;;2.90;2.20;;;;;;;;;;4961947;28;20189;-75
2021/09/20 06:49:01;;;;;;;3.40;2.30;;;;;;;;;;4965036;28;20670;-74
2021/09/20 06:51:26;;;;;;;4.80;1.90;;;;;;;;;;4959165;28;20473;-74
2021/09/20 06:53:51;;;;;;;3.73;2.20;;;;;;;;;;4953482;28;20201;-74
2021/09/20 06:56:17;;;;;;;3.87;2.53;;;;;;;;;;4958034;28;20208;-75
2021/09/20 06:58:42;;;;;;;5.63;2.73;;;;;;;;;;4963024;28;20193;-75
2021/09/20 07:01:08;;;;;;;3.07;2.30;;;;;;;;;;4962820;28;20206;-74
2021/09/20 07:03:33;;;;;;;2.70;2.33;;;;;;;;;;4955812;28;20203;-74
2021/09/20 07:05:58;;;;;;;3.30;2.07;;;;;;;;;;4949826;28;20189;-74
2021/09/20 07:08:26;;;;;;;3.60;1.97;;;;;;;;;;4956321;28;20182;-74
2021/09/20 07:10:51;;;;;;;3.00;2.17;;;;;;;;;;4960769;28;20671;-74
2021/09/20 07:13:16;;;;;;;3.73;2.17;;;;;;;;;;4956781;28;20500;-74
2021/09/20 07:15:41;;;;;;;4.90;2.50;;;;;;;;;;4958675;28;20198;-74
2021/09/20 07:18:07;;;;;;;5.80;2.23;;;;;;;;;;4964007;28;20269;-75
2021/09/20 07:20:32;;;;;;;2.60;2.00;;;;;;;;;;4959007;28;20890;-74
2021/09/20 07:22:57;;;;;;;3.03;2.37;;;;;;;;;;4958006;28;20233;-74
2021/09/20 07:25:23;;;;;;;4.27;1.70;;;;;;;;;;4956694;28;20309;-74
2021/09/20 07:27:48;;;;;;;2.83;2.27;;;;;;;;;;4960296;28;20190;-74
2021/09/20 07:30:19;;;;;;;4.13;2.10;;;;;;;;;;4958278;28;20694;-75
2021/09/20 07:32:48;;;;;;;2.30;1.97;;;;;;;;;;4951217;28;20258;-75
2021/09/20 07:35:16;;;;;;;2.63;2.17;;;;;;;;;;4954188;28;20838;-75
2021/09/20 07:37:42;;;;;;;2.20;1.63;;;;;;;;;;4960368;28;20507;-75
2021/09/20 07:40:08;;;;;;;1.90;1.70;;;;;;;;;;4963473;28;20441;-75
2021/09/20 07:42:33;;;;;;;3.93;2.30;;;;;;;;;;4958363;28;20469;-75
2021/09/20 07:44:59;;;;;;;2.47;1.90;;;;;;;;;;4954843;28;20265;-75
2021/09/20 07:47:24;;;;;;;3.07;2.10;;;;;;;;;;4959886;28;20249;-75
2021/09/20 07:49:49;;;;;;;2.23;2.00;;;;;;;;;;4961412;28;20186;-75
2021/09/20 07:52:14;;;;;;;2.10;1.90;;;;;;;;;;4961927;28;20218;-75
2021/09/20 07:54:40;;;;;;;3.10;2.03;;;;;;;;;;4956995;28;20214;-75
2021/09/20 07:57:05;;;;;;;1.73;1.43;;;;;;;;;;4961739;28;20718;-75
2021/09/20 07:59:30;;;;;;;3.33;1.93;;;;;;;;;;4962626;28;20715;-75
2021/09/20 08:01:55;;;;;;;2.57;1.67;;;;;;;;;;4959381;28;20174;-75
2021/09/20 08:04:21;;;;;;;1.60;1.50;;;;;;;;;;4956543;28;20265;-75
2021/09/20 08:06:46;;;;;;;2.40;1.50;;;;;;;;;;4958338;28;20278;-75
2021/09/20 08:09:11;;;;;;;3.70;1.70;;;;;;;;;;4956975;28;20189;-74
2021/09/20 08:11:36;;;;;;;1.60;1.50;;;;;;;;;;4962087;28;20229;-75
2021/09/20 08:14:02;;;;;;;1.80;1.47;;;;;;;;;;4960180;28;20257;-75
2021/09/20 08:16:27;;;;;;;1.70;1.60;;;;;;;;;;4962321;28;20706;-74
2021/09/20 08:18:52;;;;;;;2.00;1.50;;;;;;;;;;4961566;28;20190;-75
2021/09/20 08:21:17;;;;;;;1.80;1.47;;;;;;;;;;4958828;28;20702;-75
2021/09/20 08:23:42;;;;;;;2.03;1.40;;;;;;;;;;4955965;28;20206;-75
2021/09/20 08:26:08;;;;;;;2.80;1.70;;;;;;;;;;4959021;28;20189;-75
2021/09/20 08:28:33;;;;;;;5.30;1.87;;;;;;;;;;4959627;28;20182;-75
2021/09/20 08:30:59;;;;;;;1.80;1.50;;;;;;;;;;4953193;28;20586;-75
2021/09/20 08:33:24;;;;;;;2.70;1.90;;;;;;;;;;4956993;28;20238;-75
2021/09/20 08:35:49;;;;;;;4.00;1.80;;;;;;;;;;4959837;28;20257;-75
2021/09/20 08:38:17;;;;;;;3.20;1.60;;;;;;;;;;4953471;28;20189;-75
2021/09/20 08:40:42;;;;;;;2.10;1.90;;;;;;;;;;4961755;28;20651;-74
2021/09/20 08:43:07;;;;;;;2.13;1.40;;;;;;;;;;4957199;28;20517;-75
2021/09/20 08:45:33;;;;;;;1.60;1.27;;;;;;;;;;4965977;28;20217;-75
2021/09/20 08:47:59;;;;;;;1.40;1.30;;;;;;;;;;4961484;28;20209;-75
2021/09/20 08:50:29;;;;;;;2.10;1.70;;;;;;;;;;4960234;28;20290;-75
2021/09/20 08:52:55;;;;;;;2.10;1.80;;;;;;;;;;4956088;28;20488;-75
2021/09/20 08:55:20;;;;;;;1.60;1.40;;;;;;;;;;4962373;28;20564;-75
2021/09/20 08:57:45;;;;;;;1.80;1.70;;;;;;;;;;4960984;28;20190;-75
2021/09/20 09:00:11;;;;;;;3.00;1.60;;;;;;;;;;4962643;28;20186;-75
2021/09/20 09:02:36;;;;;;;3.10;1.57;;;;;;;;;;4961704;28;20249;-75
2021/09/20 09:05:22;;;;;;;1.50;1.40;;;;;;;;;;4963009;28;20240;-75
2021/09/20 09:07:56;;;;;;;5.37;2.00;;;;;;;;;;4963930;28;20194;-75
2021/09/20 09:10:22;;;;;;;2.00;1.37;;;;;;;;;;4961536;28;20442;-75
2021/09/20 09:12:49;;;;;;;2.10;1.40;;;;;;;;;;4958007;28;20569;-75
2021/09/20 09:15:14;;;;;;;4.10;1.67;;;;;;;;;;4960403;28;20832;-75
2021/09/20 09:17:42;;;;;;;2.27;1.67;;;;;;;;;;4958978;28;20453;-74
2021/09/20 09:20:18;;;;;;;3.30;1.70;;;;;;;;;;4959765;28;20493;-75
2021/09/20 09:22:43;;;;;;;2.63;1.67;;;;;;;;;;4968176;28;20456;-75
2021/09/20 09:25:10;;;;;;;3.10;1.53;;;;;;;;;;4959865;28;20954;-75
2021/09/20 09:27:36;;;;;;;1.57;1.27;;;;;;;;;;4961290;28;20195;-75
2021/09/20 09:30:06;;;;;;;2.93;2.03;;;;;;;;;;4959123;28;20550;-75
2021/09/20 09:32:32;;;;;;;2.33;1.37;;;;;;;;;;4960971;28;20982;-74
2021/09/20 09:35:02;;;;;;;2.20;1.93;;;;;;;;;;4963628;28;20466;-75
2021/09/20 09:37:28;;;;;;;1.63;1.53;;;;;;;;;;4966076;28;20175;-75
2021/09/20 09:40:06;;;;;;;1.67;1.50;;;;;;;;;;4962945;28;20465;-75
2021/09/20 09:42:32;;;;;;;2.93;1.77;;;;;;;;;;4957722;28;20219;-75
2021/09/20 09:44:57;;;;;;;3.03;1.87;;;;;;;;;;4955498;28;20442;-75
2021/09/20 09:47:26;;;;;;;2.87;1.97;;;;;;;;;;4955717;28;20218;-75
2021/09/20 09:50:11;;;;;;;2.97;1.20;;;;;;;;;;4961842;28;20183;-75
2021/09/20 09:52:37;;;;;;;1.67;1.50;;;;;;;;;;4961879;28;20488;-75
2021/09/20 09:55:02;;;;;;;1.63;1.30;;;;;;;;;;4956483;28;20462;-75
2021/09/20 09:57:28;;;;;;;1.73;1.27;;;;;;;;;;4958638;28;20621;-75
2021/09/20 10:00:13;;;;;;;2.30;1.63;;;;;;;;;;4957509;28;20178;-75
2021/09/20 10:02:39;;;;;;;1.57;1.20;;;;;;;;;;4955983;28;20231;-76
2021/09/20 10:05:06;;;;;;;1.17;1.10;;;;;;;;;;4959770;28;20437;-76
2021/09/20 10:07:34;;;;;;;1.57;1.20;;;;;;;;;;4963659;28;20438;-76
2021/09/20 10:10:02;;;;;;;2.17;1.20;;;;;;;;;;4959567;28;20438;-75
2021/09/20 10:12:28;;;;;;;1.77;1.30;;;;;;;;;;4958162;28;20935;-76
2021/09/20 10:14:56;;;;;;;1.10;1.00;;;;;;;;;;4966921;28;20487;-76
2021/09/20 10:17:21;;;;;;;1.73;1.33;;;;;;;;;;4965238;28;20437;-75
2021/09/20 10:19:47;;;;;;;3.37;1.63;;;;;;;;;;4960238;28;20952;-76
2021/09/20 10:22:13;;;;;;;3.57;1.83;;;;;;;;;;4961692;28;20199;-75
2021/09/20 10:24:38;;;;;;;1.53;1.10;;;;;;;;;;4957386;28;20702;-76
2021/09/20 10:27:04;;;;;;;4.63;1.37;;;;;;;;;;4963740;28;20525;-75
2021/09/20 10:29:29;;;;;;;0.90;0.90;;;;;;;;;;4962277;28;20187;-75
2021/09/20 10:31:55;;;;;;;1.70;1.47;;;;;;;;;;4958781;28;20185;-76
2021/09/20 10:34:20;;;;;;;3.13;1.50;;;;;;;;;;4962182;28;20174;-76
2021/09/20 10:36:58;;;;;;;1.10;1.00;;;;;;;;;;4961520;28;20236;-76
2021/09/20 10:39:42;;;;;;;3.17;1.20;;;;;;;;;;4962185;28;20186;-76
2021/09/20 10:42:07;;;;;;;1.33;1.23;;;;;;;;;;4962196;28;20586;-76
2021/09/20 10:44:39;;;;;;;2.87;1.23;;;;;;;;;;4961851;28;20530;-76
2021/09/20 10:47:13;;;;;;;1.63;1.47;;;;;;;;;;4963174;28;20316;-76
2021/09/20 10:49:45;;;;;;;2.00;1.00;;;;;;;;;;4958525;28;20517;-75
2021/09/20 10:52:12;;;;;;;2.00;1.47;;;;;;;;;;4963621;28;20455;-75
2021/09/20 10:54:37;;;;;;;1.57;1.20;;;;;;;;;;4961996;28;20433;-75
2021/09/20 10:57:11;;;;;;;2.53;1.40;;;;;;;;;;4965547;28;20434;-75
2021/09/20 10:59:36;;;;;;;2.73;1.40;;;;;;;;;;4957230;28;20194;-75
2021/09/20 11:02:04;;;;;;;1.80;1.47;;;;;;;;;;4963176;28;20426;-75
2021/09/20 11:04:31;;;;;;;2.07;1.30;;;;;;;;;;4953120;28;20249;-76
2021/09/20 11:07:05;;;;;;;1.40;1.30;;;;;;;;;;4958624;28;20535;-75
2021/09/20 11:09:32;;;;;;;2.37;1.50;;;;;;;;;;4961475;28;20433;-75
2021/09/20 11:12:05;;;;;;;1.10;1.00;;;;;;;;;;4959758;28;20437;-75
2021/09/20 11:14:38;;;;;;;1.20;1.03;;;;;;;;;;4954079;28;20551;-75
2021/09/20 11:17:17;;;;;;;1.40;1.30;;;;;;;;;;4959186;28;20447;-76
2021/09/20 11:19:44;;;;;;;2.50;1.77;;;;;;;;;;4962444;28;20434;-76
2021/09/20 11:22:13;;;;;;;1.70;1.37;;;;;;;;;;4957714;28;20908;-76
2021/09/20 11:24:46;;;;;;;2.33;1.20;;;;;;;;;;4961376;28;20430;-75
2021/09/20 11:27:13;;;;;;;1.70;1.07;;;;;;;;;;4960268;28;20434;-76
2021/09/20 11:29:39;;;;;;;5.40;1.43;;;;;;;;;;4954743;28;20454;-75
2021/09/20 11:32:05;;;;;;;1.30;1.20;;;;;;;;;;4956081;28;20443;-75
2021/09/20 11:34:35;;;;;;;1.87;1.30;;;;;;;;;;4957921;28;20183;-76
2021/09/20 11:37:09;;;;;;;5.47;1.30;;;;;;;;;;4961773;28;20470;-75
2021/09/20 11:39:48;;;;;;;3.60;1.00;;;;;;;;;;4957496;28;20442;-75
2021/09/20 11:42:15;;;;;;;2.50;1.50;;;;;;;;;;4958268;28;20469;-75
2021/09/20 11:44:48;;;;;;;1.70;0.90;;;;;;;;;;4960549;28;20436;-76
2021/09/20 11:47:17;;;;;;;1.77;1.00;;;;;;;;;;4961654;28;20429;-75
2021/09/20 11:49:43;;;;;;;2.23;1.13;;;;;;;;;;4957494;28;20430;-75
2021/09/20 11:52:08;;;;;;;3.43;1.10;;;;;;;;;;4952550;28;20461;-75
2021/09/20 11:54:36;;;;;;;1.40;1.30;;;;;;;;;;4953544;28;20961;-75
2021/09/20 11:57:15;;;;;;;1.90;1.37;;;;;;;;;;4962108;28;20209;-75
2021/09/20 11:59:40;;;;;;;1.50;1.37;;;;;;;;;;4959065;28;20453;-76
2021/09/20 12:02:06;;;;;;;1.47;1.10;;;;;;;;;;4963771;28;20829;-76
2021/09/20 12:04:48;;;;;;;1.80;1.13;;;;;;;;;;4958980;28;20706;-76
2021/09/20 12:07:46;;;;;;;1.87;1.00;;;;;;;;;;4962054;28;20430;-75
2021/09/20 12:10:12;;;;;;;1.03;0.93;;;;;;;;;;4964444;28;20845;-75
2021/09/20 12:12:37;;;;;;;2.23;1.60;;;;;;;;;;4961633;28;20445;-75
2021/09/20 12:15:02;;;;;;;3.30;1.10;;;;;;;;;;4964112;28;20453;-76
2021/09/20 12:17:47;;;;;;;1.03;0.93;;;;;;;;;;4959312;28;20277;-76
2021/09/20 12:20:13;;;;;;;2.33;1.00;;;;;;;;;;4961368;28;20174;-75
2021/09/20 12:22:39;;;;;;;1.10;1.00;;;;;;;;;;4959118;28;20445;-75
2021/09/20 12:25:25;;;;;;;1.50;1.20;;;;;;;;;;4959455;28;20191;-75
2021/09/20 12:27:50;;;;;;;1.20;1.10;;;;;;;;;;4959150;28;20792;-75
2021/09/20 12:30:19;;;;;;;1.40;0.80;;;;;;;;;;4962603;28;20489;-75
2021/09/20 12:32:44;;;;;;;3.57;1.03;;;;;;;;;;4955289;28;20200;-75
2021/09/20 12:35:10;;;;;;;1.77;0.90;;;;;;;;;;4958232;28;20827;-76
2021/09/20 12:37:35;;;;;;;1.80;1.30;;;;;;;;;;4951820;28;20183;-75
2021/09/20 12:40:33;;;;;;;1.20;1.03;;;;;;;;;;4956365;28;20179;-75
2021/09/20 12:43:09;;;;;;;1.80;1.20;;;;;;;;;;4959907;28;20225;-76
2021/09/20 12:45:39;;;;;;;1.30;1.20;;;;;;;;;;4950034;28;20438;-76
2021/09/20 12:48:04;;;;;;;1.23;1.00;;;;;;;;;;4949750;28;20461;-75
2021/09/20 12:50:36;;;;;;;1.40;1.30;;;;;;;;;;4961400;28;20926;-75
2021/09/20 12:53:02;;;;;;;3.20;1.20;;;;;;;;;;4956829;28;20675;-75
2021/09/20 12:55:32;;;;;;;1.37;1.00;;;;;;;;;;4958588;28;20470;-75
2021/09/20 12:57:57;;;;;;;1.93;1.20;;;;;;;;;;4956187;28;20186;-75
2021/09/20 13:00:49;;;;;;;1.57;1.40;;;;;;;;;;4957155;28;20442;-75
2021/09/20 13:03:14;;;;;;;1.50;1.27;;;;;;;;;;4953903;28;20255;-75
2021/09/20 13:05:43;;;;;;;1.13;1.13;;;;;;;;;;4958340;28;20943;-75
2021/09/20 13:08:09;;;;;;;1.30;1.20;;;;;;;;;;4958384;28;20230;-75
2021/09/20 13:10:36;;;;;;;1.83;1.50;;;;;;;;;;4953578;28;20843;-75
2021/09/20 13:13:02;;;;;;;2.47;1.40;;;;;;;;;;4954270;28;20261;-75
2021/09/20 13:15:29;;;;;;;2.40;1.37;;;;;;;;;;4953688;28;20572;-74
2021/09/20 13:17:56;;;;;;;1.40;1.00;;;;;;;;;;4956970;28;20266;-74
2021/09/20 13:20:26;;;;;;;1.20;1.10;;;;;;;;;;4956822;28;21103;-74
2021/09/20 13:23:00;;;;;;;0.87;0.87;;;;;;;;;;4960379;28;20462;-72
2021/09/20 13:25:27;;;;;;;1.83;1.43;;;;;;;;;;4956104;28;20429;-72
2021/09/20 13:27:56;;;;;;;1.80;1.20;;;;;;;;;;4950602;28;20853;-73
2021/09/20 13:30:21;;;;;;;4.33;1.20;;;;;;;;;;4955687;28;20437;-73
2021/09/20 13:32:46;;;;;;;2.33;1.30;;;;;;;;;;4962899;28;21286;-73
2021/09/20 13:35:19;;;;;;;3.27;1.33;;;;;;;;;;4959851;28;20695;-73
2021/09/20 13:37:44;;;;;;;1.00;0.90;;;;;;;;;;4958164;28;20922;-73
2021/09/20 13:40:09;;;;;;;2.33;1.20;;;;;;;;;;4953239;28;20522;-73
2021/09/20 13:42:35;;;;;;;1.20;0.80;;;;;;;;;;4957235;28;20962;-73
2021/09/20 13:45:00;;;;;;;1.10;1.00;;;;;;;;;;4961141;28;20171;-73
2021/09/20 13:47:26;;;;;;;1.47;1.37;;;;;;;;;;4959705;28;20225;-73
2021/09/20 13:49:51;;;;;;;1.07;1.07;;;;;;;;;;4957534;28;20179;-73
2021/09/20 13:52:16;;;;;;;1.37;1.27;;;;;;;;;;4959530;28;20841;-73
2021/09/20 13:54:42;;;;;;;1.50;1.40;;;;;;;;;;4957588;28;20182;-73
2021/09/20 13:57:07;;;;;;;1.30;1.10;;;;;;;;;;4958774;28;20187;-73
2021/09/20 13:59:33;;;;;;;2.80;1.40;;;;;;;;;;4954831;28;20266;-74
2021/09/20 14:01:58;;;;;;;1.83;1.50;;;;;;;;;;4951927;28;20184;-74
2021/09/20 14:04:23;;;;;;;1.47;1.37;;;;;;;;;;4959040;28;20187;-73
2021/09/20 14:06:48;;;;;;;1.70;1.53;;;;;;;;;;4964145;28;20198;-74
2021/09/20 14:09:14;;;;;;;1.83;1.73;;;;;;;;;;4960316;28;20190;-74
2021/09/20 14:11:39;;;;;;;1.60;1.50;;;;;;;;;;4951007;28;20766;-73
2021/09/20 14:14:04;;;;;;;1.90;1.70;;;;;;;;;;4961953;28;20214;-73
2021/09/20 14:16:31;;;;;;;2.77;1.60;;;;;;;;;;4961545;28;20202;-73
2021/09/20 14:18:56;;;;;;;2.33;1.73;;;;;;;;;;4959633;28;20256;-74
2021/09/20 14:21:21;;;;;;;1.80;1.70;;;;;;;;;;4955945;28;20454;-74
2021/09/20 14:23:46;;;;;;;3.10;1.60;;;;;;;;;;4959177;28;20698;-74
2021/09/20 14:26:11;;;;;;;1.93;1.60;;;;;;;;;;4964303;28;20656;-74
2021/09/20 14:28:37;;;;;;;4.93;1.80;;;;;;;;;;4953300;28;20186;-74
2021/09/20 14:31:04;;;;;;;3.80;1.30;;;;;;;;;;4957294;28;20202;-75
2021/09/20 14:33:30;;;;;;;2.07;1.87;;;;;;;;;;4952185;28;20211;-74
2021/09/20 14:35:55;;;;;;;1.80;1.70;;;;;;;;;;4957479;28;20472;-74
2021/09/20 14:38:20;;;;;;;2.40;1.97;;;;;;;;;;4953398;28;20183;-75
2021/09/20 14:40:45;;;;;;;2.40;2.00;;;;;;;;;;4957343;28;20235;-74